sensor_id;sensor_type;location;lat;lon;timestamp;P1;durP1;ratioP1;P2;durP2;ratioP2
27489;SDS011;14925;51.026;13.752;2022-09-09T00:00:21;8.38;;;3.20;;
27489;SDS011;14925;51.026;13.752;2022-09-09T00:03:34;5.78;;;3.08;;
27489;SDS011;14925;51.026;13.752;2022-09-09T00:08:09;6.72;;;2.53;;
27489;SDS011;14925;51.026;13.752;2022-09-09T00:10:49;3.53;;;2.50;;
27489;SDS011;14925;51.026;13.752;2022-09-09T00:13:21;5.28;;;2.85;;
27489;SDS011;14925;51.026;13.752;2022-09-09T00:21:50;3.10;;;2.80;;
27489;SDS011;14925;51.026;13.752;2022-09-09T00:24:28;5.95;;;2.60;;
27489;SDS011;14925;51.026;13.752;2022-09-09T00:27:17;6.80;;;2.97;;
27489;SDS011;14925;51.026;13.752;2022-09-09T00:32:37;5.15;;;2.72;;
27489;SDS011;14925;51.026;13.752;2022-09-09T00:35:04;3.67;;;3.30;;
27489;SDS011;14925;51.026;13.752;2022-09-09T00:40:04;7.78;;;3.55;;
27489;SDS011;14925;51.026;13.752;2022-09-09T00:42:41;4.03;;;3.38;;
27489;SDS011;14925;51.026;13.752;2022-09-09T00:48:11;5.80;;;3.13;;
27489;SDS011;14925;51.026;13.752;2022-09-09T00:50:49;4.43;;;3.10;;
27489;SDS011;14925;51.026;13.752;2022-09-09T00:53:51;5.82;;;3.17;;
27489;SDS011;14925;51.026;13.752;2022-09-09T00:56:29;9.50;;;3.92;;
27489;SDS011;14925;51.026;13.752;2022-09-09T01:01:54;7.10;;;4.13;;
27489;SDS011;14925;51.026;13.752;2022-09-09T01:04:23;6.45;;;2.92;;
27489;SDS011;14925;51.026;13.752;2022-09-09T01:06:55;7.38;;;3.47;;
27489;SDS011;14925;51.026;13.752;2022-09-09T01:09:29;5.55;;;3.08;;
27489;SDS011;14925;51.026;13.752;2022-09-09T01:19:57;6.53;;;3.65;;
27489;SDS011;14925;51.026;13.752;2022-09-09T01:22:34;7.15;;;3.13;;
27489;SDS011;14925;51.026;13.752;2022-09-09T01:27:54;5.97;;;4.00;;
27489;SDS011;14925;51.026;13.752;2022-09-09T01:30:21;6.75;;;3.97;;
27489;SDS011;14925;51.026;13.752;2022-09-09T01:32:48;9.68;;;3.70;;
27489;SDS011;14925;51.026;13.752;2022-09-09T01:35:29;4.72;;;3.28;;
27489;SDS011;14925;51.026;13.752;2022-09-09T01:37:59;7.47;;;3.95;;
27489;SDS011;14925;51.026;13.752;2022-09-09T01:40:25;6.18;;;3.55;;
27489;SDS011;14925;51.026;13.752;2022-09-09T01:42:51;9.40;;;3.92;;
27489;SDS011;14925;51.026;13.752;2022-09-09T01:45:17;5.90;;;3.83;;
27489;SDS011;14925;51.026;13.752;2022-09-09T01:47:42;7.22;;;3.80;;
27489;SDS011;14925;51.026;13.752;2022-09-09T01:50:08;10.65;;;3.55;;
27489;SDS011;14925;51.026;13.752;2022-09-09T01:52:36;7.82;;;4.00;;
27489;SDS011;14925;51.026;13.752;2022-09-09T01:55:02;5.32;;;3.40;;
27489;SDS011;14925;51.026;13.752;2022-09-09T01:57:31;8.45;;;4.00;;
27489;SDS011;14925;51.026;13.752;2022-09-09T02:00:09;5.55;;;3.83;;
27489;SDS011;14925;51.026;13.752;2022-09-09T02:02:59;8.77;;;3.58;;
27489;SDS011;14925;51.026;13.752;2022-09-09T02:05:45;9.13;;;3.45;;
27489;SDS011;14925;51.026;13.752;2022-09-09T02:08:23;10.38;;;3.90;;
27489;SDS011;14925;51.026;13.752;2022-09-09T02:13:21;6.22;;;2.97;;
27489;SDS011;14925;51.026;13.752;2022-09-09T02:18:30;7.00;;;2.90;;
27489;SDS011;14925;51.026;13.752;2022-09-09T02:21:03;7.13;;;3.00;;
27489;SDS011;14925;51.026;13.752;2022-09-09T02:23:28;4.53;;;3.15;;
27489;SDS011;14925;51.026;13.752;2022-09-09T02:25:55;3.78;;;2.60;;
27489;SDS011;14925;51.026;13.752;2022-09-09T02:28:23;7.57;;;3.45;;
27489;SDS011;14925;51.026;13.752;2022-09-09T02:30:50;5.80;;;3.03;;
27489;SDS011;14925;51.026;13.752;2022-09-09T02:33:20;5.97;;;3.00;;
27489;SDS011;14925;51.026;13.752;2022-09-09T02:35:52;5.80;;;2.63;;
27489;SDS011;14925;51.026;13.752;2022-09-09T02:38:17;7.78;;;3.65;;
27489;SDS011;14925;51.026;13.752;2022-09-09T02:40:45;6.60;;;3.10;;
27489;SDS011;14925;51.026;13.752;2022-09-09T02:43:10;7.05;;;3.03;;
27489;SDS011;14925;51.026;13.752;2022-09-09T02:45:44;4.53;;;1.92;;
27489;SDS011;14925;51.026;13.752;2022-09-09T02:48:36;8.10;;;3.17;;
27489;SDS011;14925;51.026;13.752;2022-09-09T02:56:40;7.60;;;3.05;;
27489;SDS011;14925;51.026;13.752;2022-09-09T02:59:09;4.80;;;2.83;;
27489;SDS011;14925;51.026;13.752;2022-09-09T03:01:34;8.43;;;2.70;;
27489;SDS011;14925;51.026;13.752;2022-09-09T03:04:00;4.20;;;3.05;;
27489;SDS011;14925;51.026;13.752;2022-09-09T03:06:27;5.70;;;3.00;;
27489;SDS011;14925;51.026;13.752;2022-09-09T03:08:53;5.78;;;3.30;;
27489;SDS011;14925;51.026;13.752;2022-09-09T03:11:18;7.85;;;2.50;;
27489;SDS011;14925;51.026;13.752;2022-09-09T03:13:43;8.95;;;2.70;;
27489;SDS011;14925;51.026;13.752;2022-09-09T03:16:09;6.38;;;3.10;;
27489;SDS011;14925;51.026;13.752;2022-09-09T03:18:34;6.85;;;3.08;;
27489;SDS011;14925;51.026;13.752;2022-09-09T03:21:00;8.65;;;3.65;;
27489;SDS011;14925;51.026;13.752;2022-09-09T03:23:25;7.88;;;2.80;;
27489;SDS011;14925;51.026;13.752;2022-09-09T03:25:51;5.65;;;3.22;;
27489;SDS011;14925;51.026;13.752;2022-09-09T03:28:17;7.85;;;2.47;;
27489;SDS011;14925;51.026;13.752;2022-09-09T03:30:42;8.00;;;3.28;;
27489;SDS011;14925;51.026;13.752;2022-09-09T03:33:08;4.55;;;2.20;;
27489;SDS011;14925;51.026;13.752;2022-09-09T03:35:33;3.67;;;2.60;;
27489;SDS011;14925;51.026;13.752;2022-09-09T03:37:59;8.07;;;2.97;;
27489;SDS011;14925;51.026;13.752;2022-09-09T03:40:25;4.97;;;2.58;;
27489;SDS011;14925;51.026;13.752;2022-09-09T03:42:51;8.40;;;3.00;;
27489;SDS011;14925;51.026;13.752;2022-09-09T03:45:16;7.97;;;2.80;;
27489;SDS011;14925;51.026;13.752;2022-09-09T03:47:42;7.85;;;3.05;;
27489;SDS011;14925;51.026;13.752;2022-09-09T03:50:07;11.88;;;3.17;;
27489;SDS011;14925;51.026;13.752;2022-09-09T03:52:37;9.25;;;3.53;;
27489;SDS011;14925;51.026;13.752;2022-09-09T03:55:05;4.20;;;3.17;;
27489;SDS011;14925;51.026;13.752;2022-09-09T03:57:32;6.22;;;2.70;;
27489;SDS011;14925;51.026;13.752;2022-09-09T04:00:00;5.63;;;3.15;;
27489;SDS011;14925;51.026;13.752;2022-09-09T04:02:26;7.53;;;3.42;;
27489;SDS011;14925;51.026;13.752;2022-09-09T04:04:52;5.38;;;3.30;;
27489;SDS011;14925;51.026;13.752;2022-09-09T04:07:17;8.80;;;3.45;;
27489;SDS011;14925;51.026;13.752;2022-09-09T04:09:42;5.93;;;3.00;;
27489;SDS011;14925;51.026;13.752;2022-09-09T04:12:08;8.80;;;3.47;;
27489;SDS011;14925;51.026;13.752;2022-09-09T04:14:33;6.93;;;3.67;;
27489;SDS011;14925;51.026;13.752;2022-09-09T04:16:58;7.68;;;3.65;;
27489;SDS011;14925;51.026;13.752;2022-09-09T04:19:24;10.77;;;3.20;;
27489;SDS011;14925;51.026;13.752;2022-09-09T04:21:50;7.18;;;3.88;;
27489;SDS011;14925;51.026;13.752;2022-09-09T04:24:16;13.98;;;4.00;;
27489;SDS011;14925;51.026;13.752;2022-09-09T04:26:42;13.38;;;4.40;;
27489;SDS011;14925;51.026;13.752;2022-09-09T04:29:07;6.95;;;3.33;;
27489;SDS011;14925;51.026;13.752;2022-09-09T04:31:32;9.23;;;3.95;;
27489;SDS011;14925;51.026;13.752;2022-09-09T04:33:58;5.28;;;4.10;;
27489;SDS011;14925;51.026;13.752;2022-09-09T04:36:27;9.00;;;3.90;;
27489;SDS011;14925;51.026;13.752;2022-09-09T04:38:52;9.20;;;4.63;;
27489;SDS011;14925;51.026;13.752;2022-09-09T04:41:18;7.78;;;4.70;;
27489;SDS011;14925;51.026;13.752;2022-09-09T04:43:43;7.07;;;5.22;;
27489;SDS011;14925;51.026;13.752;2022-09-09T04:46:08;7.45;;;4.03;;
27489;SDS011;14925;51.026;13.752;2022-09-09T04:48:34;6.50;;;4.38;;
27489;SDS011;14925;51.026;13.752;2022-09-09T04:51:00;9.20;;;4.60;;
27489;SDS011;14925;51.026;13.752;2022-09-09T04:53:27;7.00;;;4.15;;
27489;SDS011;14925;51.026;13.752;2022-09-09T04:56:00;6.68;;;4.55;;
27489;SDS011;14925;51.026;13.752;2022-09-09T04:58:30;7.70;;;4.25;;
27489;SDS011;14925;51.026;13.752;2022-09-09T05:01:01;6.78;;;4.55;;
27489;SDS011;14925;51.026;13.752;2022-09-09T05:03:28;8.93;;;4.00;;
27489;SDS011;14925;51.026;13.752;2022-09-09T05:05:53;7.10;;;4.28;;
27489;SDS011;14925;51.026;13.752;2022-09-09T05:08:19;11.65;;;4.22;;
27489;SDS011;14925;51.026;13.752;2022-09-09T05:10:45;7.93;;;5.32;;
27489;SDS011;14925;51.026;13.752;2022-09-09T05:13:14;6.50;;;3.85;;
27489;SDS011;14925;51.026;13.752;2022-09-09T05:15:39;11.50;;;3.75;;
27489;SDS011;14925;51.026;13.752;2022-09-09T05:18:05;7.90;;;3.90;;
27489;SDS011;14925;51.026;13.752;2022-09-09T05:20:30;5.78;;;3.55;;
27489;SDS011;14925;51.026;13.752;2022-09-09T05:22:56;7.82;;;3.72;;
27489;SDS011;14925;51.026;13.752;2022-09-09T05:25:22;5.82;;;3.67;;
27489;SDS011;14925;51.026;13.752;2022-09-09T05:27:53;10.13;;;4.00;;
27489;SDS011;14925;51.026;13.752;2022-09-09T05:30:19;7.50;;;3.50;;
27489;SDS011;14925;51.026;13.752;2022-09-09T05:32:48;5.45;;;3.40;;
27489;SDS011;14925;51.026;13.752;2022-09-09T05:35:14;7.78;;;3.67;;
27489;SDS011;14925;51.026;13.752;2022-09-09T05:37:44;8.20;;;3.47;;
27489;SDS011;14925;51.026;13.752;2022-09-09T05:40:10;5.35;;;3.22;;
27489;SDS011;14925;51.026;13.752;2022-09-09T05:42:36;5.80;;;3.08;;
27489;SDS011;14925;51.026;13.752;2022-09-09T05:45:01;5.60;;;2.80;;
27489;SDS011;14925;51.026;13.752;2022-09-09T05:47:27;9.82;;;3.05;;
27489;SDS011;14925;51.026;13.752;2022-09-09T05:49:53;8.82;;;2.90;;
27489;SDS011;14925;51.026;13.752;2022-09-09T05:52:19;6.32;;;3.38;;
27489;SDS011;14925;51.026;13.752;2022-09-09T05:54:44;5.60;;;2.80;;
27489;SDS011;14925;51.026;13.752;2022-09-09T05:57:09;7.38;;;3.20;;
27489;SDS011;14925;51.026;13.752;2022-09-09T05:59:35;4.55;;;2.75;;
27489;SDS011;14925;51.026;13.752;2022-09-09T06:02:00;7.53;;;2.95;;
27489;SDS011;14925;51.026;13.752;2022-09-09T06:04:25;8.20;;;3.03;;
27489;SDS011;14925;51.026;13.752;2022-09-09T06:06:51;5.80;;;2.85;;
27489;SDS011;14925;51.026;13.752;2022-09-09T06:09:16;7.75;;;3.17;;
27489;SDS011;14925;51.026;13.752;2022-09-09T06:11:41;5.93;;;3.10;;
27489;SDS011;14925;51.026;13.752;2022-09-09T06:14:07;8.55;;;3.40;;
27489;SDS011;14925;51.026;13.752;2022-09-09T06:16:34;6.80;;;2.95;;
27489;SDS011;14925;51.026;13.752;2022-09-09T06:19:00;6.30;;;3.03;;
27489;SDS011;14925;51.026;13.752;2022-09-09T06:21:26;9.98;;;3.40;;
27489;SDS011;14925;51.026;13.752;2022-09-09T06:23:55;10.63;;;3.47;;
27489;SDS011;14925;51.026;13.752;2022-09-09T06:26:22;6.45;;;3.13;;
27489;SDS011;14925;51.026;13.752;2022-09-09T06:28:49;11.32;;;3.35;;
27489;SDS011;14925;51.026;13.752;2022-09-09T06:31:16;7.43;;;3.30;;
27489;SDS011;14925;51.026;13.752;2022-09-09T06:33:42;6.20;;;3.30;;
27489;SDS011;14925;51.026;13.752;2022-09-09T06:36:16;5.82;;;3.03;;
27489;SDS011;14925;51.026;13.752;2022-09-09T06:38:43;3.72;;;2.65;;
27489;SDS011;14925;51.026;13.752;2022-09-09T06:41:09;6.82;;;3.05;;
27489;SDS011;14925;51.026;13.752;2022-09-09T06:43:36;8.35;;;2.90;;
27489;SDS011;14925;51.026;13.752;2022-09-09T06:46:03;5.43;;;2.88;;
27489;SDS011;14925;51.026;13.752;2022-09-09T06:48:36;5.57;;;2.75;;
27489;SDS011;14925;51.026;13.752;2022-09-09T06:53:32;8.13;;;3.00;;
27489;SDS011;14925;51.026;13.752;2022-09-09T06:56:18;13.77;;;3.67;;
27489;SDS011;14925;51.026;13.752;2022-09-09T06:58:46;10.18;;;3.35;;
27489;SDS011;14925;51.026;13.752;2022-09-09T07:01:15;9.02;;;3.42;;
27489;SDS011;14925;51.026;13.752;2022-09-09T07:03:42;5.65;;;3.38;;
27489;SDS011;14925;51.026;13.752;2022-09-09T07:06:13;9.38;;;3.35;;
27489;SDS011;14925;51.026;13.752;2022-09-09T07:08:40;9.90;;;3.70;;
27489;SDS011;14925;51.026;13.752;2022-09-09T07:11:06;6.97;;;2.97;;
27489;SDS011;14925;51.026;13.752;2022-09-09T07:13:32;7.57;;;3.05;;
27489;SDS011;14925;51.026;13.752;2022-09-09T07:16:08;4.80;;;2.92;;
27489;SDS011;14925;51.026;13.752;2022-09-09T07:18:38;7.35;;;3.00;;
27489;SDS011;14925;51.026;13.752;2022-09-09T07:21:04;6.22;;;3.22;;
27489;SDS011;14925;51.026;13.752;2022-09-09T07:23:31;8.00;;;3.28;;
27489;SDS011;14925;51.026;13.752;2022-09-09T07:25:57;6.53;;;2.80;;
27489;SDS011;14925;51.026;13.752;2022-09-09T07:28:23;6.15;;;2.40;;
27489;SDS011;14925;51.026;13.752;2022-09-09T07:30:59;6.28;;;2.83;;
27489;SDS011;14925;51.026;13.752;2022-09-09T07:33:27;6.55;;;2.72;;
27489;SDS011;14925;51.026;13.752;2022-09-09T07:36:01;6.45;;;2.38;;
27489;SDS011;14925;51.026;13.752;2022-09-09T07:38:27;8.50;;;2.45;;
27489;SDS011;14925;51.026;13.752;2022-09-09T07:40:54;6.57;;;2.30;;
27489;SDS011;14925;51.026;13.752;2022-09-09T07:43:28;4.97;;;1.95;;
27489;SDS011;14925;51.026;13.752;2022-09-09T07:45:59;5.10;;;2.25;;
27489;SDS011;14925;51.026;13.752;2022-09-09T07:48:31;7.78;;;2.15;;
27489;SDS011;14925;51.026;13.752;2022-09-09T07:51:13;6.80;;;1.80;;
27489;SDS011;14925;51.026;13.752;2022-09-09T07:53:44;5.47;;;2.00;;
27489;SDS011;14925;51.026;13.752;2022-09-09T07:56:12;3.28;;;1.70;;
27489;SDS011;14925;51.026;13.752;2022-09-09T07:58:41;5.63;;;1.98;;
27489;SDS011;14925;51.026;13.752;2022-09-09T08:01:10;6.88;;;1.90;;
27489;SDS011;14925;51.026;13.752;2022-09-09T08:03:38;5.78;;;1.85;;
27489;SDS011;14925;51.026;13.752;2022-09-09T08:06:07;3.97;;;1.77;;
27489;SDS011;14925;51.026;13.752;2022-09-09T08:08:34;6.68;;;2.03;;
27489;SDS011;14925;51.026;13.752;2022-09-09T08:11:01;5.53;;;2.00;;
27489;SDS011;14925;51.026;13.752;2022-09-09T08:13:32;6.40;;;1.67;;
27489;SDS011;14925;51.026;13.752;2022-09-09T08:16:05;5.30;;;1.90;;
27489;SDS011;14925;51.026;13.752;2022-09-09T08:18:41;7.20;;;2.25;;
27489;SDS011;14925;51.026;13.752;2022-09-09T08:21:11;4.32;;;2.15;;
27489;SDS011;14925;51.026;13.752;2022-09-09T08:23:39;4.00;;;2.22;;
27489;SDS011;14925;51.026;13.752;2022-09-09T08:26:10;7.15;;;2.10;;
27489;SDS011;14925;51.026;13.752;2022-09-09T08:28:36;5.72;;;2.13;;
27489;SDS011;14925;51.026;13.752;2022-09-09T08:33:38;4.90;;;2.25;;
27489;SDS011;14925;51.026;13.752;2022-09-09T08:36:05;6.82;;;2.20;;
27489;SDS011;14925;51.026;13.752;2022-09-09T08:38:32;3.55;;;1.98;;
27489;SDS011;14925;51.026;13.752;2022-09-09T08:52:16;6.13;;;2.22;;
27489;SDS011;14925;51.026;13.752;2022-09-09T08:55:11;5.03;;;2.33;;
27489;SDS011;14925;51.026;13.752;2022-09-09T09:00:18;6.90;;;2.20;;
27489;SDS011;14925;51.026;13.752;2022-09-09T09:05:27;3.97;;;1.83;;
27489;SDS011;14925;51.026;13.752;2022-09-09T09:10:46;6.70;;;1.98;;
27489;SDS011;14925;51.026;13.752;2022-09-09T09:13:26;6.60;;;2.30;;
27489;SDS011;14925;51.026;13.752;2022-09-09T09:18:54;5.68;;;2.20;;
27489;SDS011;14925;51.026;13.752;2022-09-09T09:24:05;5.82;;;1.55;;
27489;SDS011;14925;51.026;13.752;2022-09-09T09:26:35;6.15;;;1.17;;
27489;SDS011;14925;51.026;13.752;2022-09-09T09:29:03;6.38;;;1.45;;
27489;SDS011;14925;51.026;13.752;2022-09-09T09:31:36;9.27;;;1.40;;
27489;SDS011;14925;51.026;13.752;2022-09-09T09:34:02;7.00;;;1.55;;
27489;SDS011;14925;51.026;13.752;2022-09-09T09:36:41;8.05;;;1.70;;
27489;SDS011;14925;51.026;13.752;2022-09-09T09:39:09;6.38;;;1.40;;
27489;SDS011;14925;51.026;13.752;2022-09-09T09:41:38;5.50;;;1.20;;
27489;SDS011;14925;51.026;13.752;2022-09-09T09:44:05;7.25;;;1.38;;
27489;SDS011;14925;51.026;13.752;2022-09-09T09:46:43;7.22;;;1.52;;
27489;SDS011;14925;51.026;13.752;2022-09-09T09:49:09;7.65;;;1.88;;
27489;SDS011;14925;51.026;13.752;2022-09-09T09:51:38;7.68;;;1.50;;
27489;SDS011;14925;51.026;13.752;2022-09-09T09:56:53;4.50;;;1.33;;
27489;SDS011;14925;51.026;13.752;2022-09-09T10:01:52;5.25;;;1.33;;
27489;SDS011;14925;51.026;13.752;2022-09-09T10:04:21;4.90;;;1.23;;
27489;SDS011;14925;51.026;13.752;2022-09-09T10:06:54;7.35;;;1.25;;
27489;SDS011;14925;51.026;13.752;2022-09-09T10:09:40;6.88;;;1.23;;
27489;SDS011;14925;51.026;13.752;2022-09-09T10:12:19;5.45;;;1.25;;
27489;SDS011;14925;51.026;13.752;2022-09-09T10:23:18;5.18;;;1.13;;
27489;SDS011;14925;51.026;13.752;2022-09-09T10:29:00;3.67;;;1.02;;
27489;SDS011;14925;51.026;13.752;2022-09-09T10:40:28;4.30;;;1.63;;
27489;SDS011;14925;51.026;13.752;2022-09-09T10:43:09;4.05;;;1.40;;
27489;SDS011;14925;51.026;13.752;2022-09-09T10:45:41;4.97;;;1.30;;
27489;SDS011;14925;51.026;13.752;2022-09-09T10:54:12;3.40;;;1.38;;
27489;SDS011;14925;51.026;13.752;2022-09-09T10:56:42;6.93;;;1.60;;
27489;SDS011;14925;51.026;13.752;2022-09-09T10:59:13;3.72;;;1.40;;
27489;SDS011;14925;51.026;13.752;2022-09-09T11:01:48;4.90;;;1.30;;
27489;SDS011;14925;51.026;13.752;2022-09-09T11:07:33;5.32;;;1.33;;
27489;SDS011;14925;51.026;13.752;2022-09-09T11:10:04;4.43;;;1.25;;
27489;SDS011;14925;51.026;13.752;2022-09-09T11:12:36;8.93;;;1.60;;
27489;SDS011;14925;51.026;13.752;2022-09-09T11:15:06;8.23;;;1.50;;
27489;SDS011;14925;51.026;13.752;2022-09-09T11:17:41;4.38;;;1.30;;
27489;SDS011;14925;51.026;13.752;2022-09-09T11:20:12;2.20;;;1.10;;
27489;SDS011;14925;51.026;13.752;2022-09-09T11:22:55;6.78;;;1.35;;
27489;SDS011;14925;51.026;13.752;2022-09-09T11:25:41;6.20;;;1.73;;
27489;SDS011;14925;51.026;13.752;2022-09-09T11:36:41;6.78;;;1.63;;
27489;SDS011;14925;51.026;13.752;2022-09-09T11:44:41;4.30;;;1.90;;
27489;SDS011;14925;51.026;13.752;2022-09-09T11:52:40;7.82;;;1.90;;
27489;SDS011;14925;51.026;13.752;2022-09-09T11:55:09;6.85;;;1.98;;
27489;SDS011;14925;51.026;13.752;2022-09-09T11:57:37;6.38;;;1.73;;
27489;SDS011;14925;51.026;13.752;2022-09-09T12:00:03;5.82;;;1.90;;
27489;SDS011;14925;51.026;13.752;2022-09-09T12:02:29;7.07;;;1.95;;
27489;SDS011;14925;51.026;13.752;2022-09-09T12:05:17;6.75;;;1.95;;
27489;SDS011;14925;51.026;13.752;2022-09-09T12:07:51;6.75;;;1.90;;
27489;SDS011;14925;51.026;13.752;2022-09-09T12:10:27;5.90;;;1.75;;
27489;SDS011;14925;51.026;13.752;2022-09-09T12:12:55;5.47;;;1.75;;
27489;SDS011;14925;51.026;13.752;2022-09-09T12:15:25;6.07;;;1.83;;
27489;SDS011;14925;51.026;13.752;2022-09-09T12:17:54;3.38;;;1.40;;
27489;SDS011;14925;51.026;13.752;2022-09-09T12:20:22;3.53;;;1.15;;
27489;SDS011;14925;51.026;13.752;2022-09-09T12:28:40;4.97;;;1.40;;
27489;SDS011;14925;51.026;13.752;2022-09-09T12:31:12;5.18;;;1.48;;
27489;SDS011;14925;51.026;13.752;2022-09-09T12:33:43;4.82;;;1.60;;
27489;SDS011;14925;51.026;13.752;2022-09-09T12:36:14;4.65;;;1.38;;
27489;SDS011;14925;51.026;13.752;2022-09-09T12:38:43;6.25;;;1.95;;
27489;SDS011;14925;51.026;13.752;2022-09-09T12:41:21;6.47;;;1.60;;
27489;SDS011;14925;51.026;13.752;2022-09-09T12:43:49;5.88;;;1.80;;
27489;SDS011;14925;51.026;13.752;2022-09-09T12:49:26;3.00;;;1.50;;
27489;SDS011;14925;51.026;13.752;2022-09-09T12:52:00;2.70;;;1.38;;
27489;SDS011;14925;51.026;13.752;2022-09-09T12:54:27;3.83;;;1.48;;
27489;SDS011;14925;51.026;13.752;2022-09-09T12:56:53;6.43;;;1.65;;
27489;SDS011;14925;51.026;13.752;2022-09-09T12:59:22;3.63;;;1.42;;
27489;SDS011;14925;51.026;13.752;2022-09-09T13:01:56;3.70;;;1.23;;
27489;SDS011;14925;51.026;13.752;2022-09-09T13:04:25;3.08;;;1.10;;
27489;SDS011;14925;51.026;13.752;2022-09-09T13:06:51;4.22;;;1.30;;
27489;SDS011;14925;51.026;13.752;2022-09-09T13:09:17;3.88;;;1.30;;
27489;SDS011;14925;51.026;13.752;2022-09-09T13:11:43;4.80;;;1.65;;
27489;SDS011;14925;51.026;13.752;2022-09-09T13:14:17;4.85;;;1.65;;
27489;SDS011;14925;51.026;13.752;2022-09-09T13:16:54;6.38;;;1.60;;
27489;SDS011;14925;51.026;13.752;2022-09-09T13:19:21;2.92;;;1.13;;
27489;SDS011;14925;51.026;13.752;2022-09-09T13:21:47;5.40;;;1.50;;
27489;SDS011;14925;51.026;13.752;2022-09-09T13:24:26;4.60;;;1.30;;
27489;SDS011;14925;51.026;13.752;2022-09-09T13:26:58;4.70;;;1.10;;
27489;SDS011;14925;51.026;13.752;2022-09-09T13:29:27;4.38;;;1.20;;
27489;SDS011;14925;51.026;13.752;2022-09-09T13:32:06;4.50;;;1.40;;
27489;SDS011;14925;51.026;13.752;2022-09-09T13:34:33;4.72;;;1.23;;
27489;SDS011;14925;51.026;13.752;2022-09-09T13:37:01;3.88;;;1.20;;
27489;SDS011;14925;51.026;13.752;2022-09-09T13:39:28;2.92;;;1.00;;
27489;SDS011;14925;51.026;13.752;2022-09-09T13:41:53;3.17;;;1.10;;
27489;SDS011;14925;51.026;13.752;2022-09-09T13:44:40;4.43;;;1.40;;
27489;SDS011;14925;51.026;13.752;2022-09-09T13:47:20;9.75;;;3.65;;
27489;SDS011;14925;51.026;13.752;2022-09-09T13:49:48;16.73;;;5.72;;
27489;SDS011;14925;51.026;13.752;2022-09-09T13:52:14;19.80;;;7.70;;
27489;SDS011;14925;51.026;13.752;2022-09-09T13:54:42;19.20;;;7.72;;
27489;SDS011;14925;51.026;13.752;2022-09-09T13:57:18;15.40;;;5.47;;
27489;SDS011;14925;51.026;13.752;2022-09-09T13:59:45;7.68;;;2.70;;
27489;SDS011;14925;51.026;13.752;2022-09-09T14:02:10;11.65;;;3.10;;
27489;SDS011;14925;51.026;13.752;2022-09-09T14:04:36;8.23;;;2.40;;
27489;SDS011;14925;51.026;13.752;2022-09-09T14:07:01;4.43;;;1.30;;
27489;SDS011;14925;51.026;13.752;2022-09-09T14:09:27;5.47;;;1.88;;
27489;SDS011;14925;51.026;13.752;2022-09-09T14:11:52;7.63;;;2.50;;
27489;SDS011;14925;51.026;13.752;2022-09-09T14:14:20;4.40;;;1.50;;
27489;SDS011;14925;51.026;13.752;2022-09-09T14:16:45;8.60;;;1.65;;
27489;SDS011;14925;51.026;13.752;2022-09-09T14:19:10;5.00;;;1.30;;
27489;SDS011;14925;51.026;13.752;2022-09-09T14:21:36;7.53;;;1.92;;
27489;SDS011;14925;51.026;13.752;2022-09-09T14:24:01;7.60;;;2.30;;
27489;SDS011;14925;51.026;13.752;2022-09-09T14:26:27;3.92;;;1.50;;
27489;SDS011;14925;51.026;13.752;2022-09-09T14:28:53;5.72;;;1.58;;
27489;SDS011;14925;51.026;13.752;2022-09-09T14:31:19;5.43;;;1.90;;
27489;SDS011;14925;51.026;13.752;2022-09-09T14:33:44;5.22;;;1.70;;
27489;SDS011;14925;51.026;13.752;2022-09-09T14:36:10;4.38;;;1.48;;
27489;SDS011;14925;51.026;13.752;2022-09-09T14:38:36;2.72;;;1.13;;
27489;SDS011;14925;51.026;13.752;2022-09-09T14:41:06;3.95;;;1.60;;
27489;SDS011;14925;51.026;13.752;2022-09-09T14:43:32;3.50;;;1.38;;
27489;SDS011;14925;51.026;13.752;2022-09-09T14:46:04;4.88;;;1.60;;
27489;SDS011;14925;51.026;13.752;2022-09-09T14:48:30;5.00;;;1.42;;
27489;SDS011;14925;51.026;13.752;2022-09-09T14:50:56;5.97;;;1.67;;
27489;SDS011;14925;51.026;13.752;2022-09-09T14:53:21;4.68;;;1.42;;
27489;SDS011;14925;51.026;13.752;2022-09-09T14:55:47;5.45;;;1.80;;
27489;SDS011;14925;51.026;13.752;2022-09-09T14:58:13;3.70;;;1.40;;
27489;SDS011;14925;51.026;13.752;2022-09-09T15:00:38;10.32;;;1.70;;
27489;SDS011;14925;51.026;13.752;2022-09-09T15:03:04;6.50;;;1.88;;
27489;SDS011;14925;51.026;13.752;2022-09-09T15:05:29;4.82;;;1.48;;
27489;SDS011;14925;51.026;13.752;2022-09-09T15:07:56;6.45;;;1.50;;
27489;SDS011;14925;51.026;13.752;2022-09-09T15:10:23;4.63;;;1.50;;
27489;SDS011;14925;51.026;13.752;2022-09-09T15:12:49;6.70;;;1.95;;
27489;SDS011;14925;51.026;13.752;2022-09-09T15:15:14;2.90;;;1.48;;
27489;SDS011;14925;51.026;13.752;2022-09-09T15:17:40;5.57;;;1.80;;
27489;SDS011;14925;51.026;13.752;2022-09-09T15:20:05;5.10;;;1.42;;
27489;SDS011;14925;51.026;13.752;2022-09-09T15:22:31;5.60;;;1.55;;
27489;SDS011;14925;51.026;13.752;2022-09-09T15:24:57;4.05;;;1.40;;
27489;SDS011;14925;51.026;13.752;2022-09-09T15:27:22;4.32;;;1.50;;
27489;SDS011;14925;51.026;13.752;2022-09-09T15:29:48;7.38;;;1.70;;
27489;SDS011;14925;51.026;13.752;2022-09-09T15:32:15;7.75;;;1.73;;
27489;SDS011;14925;51.026;13.752;2022-09-09T15:34:40;5.18;;;1.60;;
27489;SDS011;14925;51.026;13.752;2022-09-09T15:37:06;5.60;;;1.60;;
27489;SDS011;14925;51.026;13.752;2022-09-09T15:39:32;4.75;;;1.40;;
27489;SDS011;14925;51.026;13.752;2022-09-09T15:41:57;4.85;;;1.50;;
27489;SDS011;14925;51.026;13.752;2022-09-09T15:44:22;4.88;;;1.65;;
27489;SDS011;14925;51.026;13.752;2022-09-09T15:46:50;6.80;;;1.50;;
27489;SDS011;14925;51.026;13.752;2022-09-09T15:49:27;5.78;;;1.77;;
27489;SDS011;14925;51.026;13.752;2022-09-09T15:51:57;5.75;;;1.60;;
27489;SDS011;14925;51.026;13.752;2022-09-09T15:54:24;5.70;;;1.77;;
27489;SDS011;14925;51.026;13.752;2022-09-09T15:56:55;4.88;;;1.40;;
27489;SDS011;14925;51.026;13.752;2022-09-09T15:59:23;5.80;;;1.45;;
27489;SDS011;14925;51.026;13.752;2022-09-09T16:01:49;7.18;;;1.58;;
27489;SDS011;14925;51.026;13.752;2022-09-09T16:04:16;4.50;;;1.58;;
27489;SDS011;14925;51.026;13.752;2022-09-09T16:06:48;7.20;;;1.67;;
27489;SDS011;14925;51.026;13.752;2022-09-09T16:09:16;6.38;;;1.85;;
27489;SDS011;14925;51.026;13.752;2022-09-09T16:11:42;3.42;;;1.35;;
27489;SDS011;14925;51.026;13.752;2022-09-09T16:14:07;4.70;;;1.77;;
27489;SDS011;14925;51.026;13.752;2022-09-09T16:16:33;7.60;;;1.90;;
27489;SDS011;14925;51.026;13.752;2022-09-09T16:19:00;4.65;;;1.60;;
27489;SDS011;14925;51.026;13.752;2022-09-09T16:21:32;4.13;;;1.55;;
27489;SDS011;14925;51.026;13.752;2022-09-09T16:24:00;7.15;;;1.90;;
27489;SDS011;14925;51.026;13.752;2022-09-09T16:26:27;3.67;;;1.63;;
27489;SDS011;14925;51.026;13.752;2022-09-09T16:28:54;8.88;;;1.80;;
27489;SDS011;14925;51.026;13.752;2022-09-09T16:31:21;5.07;;;2.00;;
27489;SDS011;14925;51.026;13.752;2022-09-09T16:33:48;3.22;;;1.60;;
27489;SDS011;14925;51.026;13.752;2022-09-09T16:36:17;4.53;;;1.60;;
27489;SDS011;14925;51.026;13.752;2022-09-09T16:38:43;8.55;;;2.05;;
27489;SDS011;14925;51.026;13.752;2022-09-09T16:41:10;5.38;;;1.65;;
27489;SDS011;14925;51.026;13.752;2022-09-09T16:43:36;5.50;;;1.52;;
27489;SDS011;14925;51.026;13.752;2022-09-09T16:46:03;4.03;;;1.60;;
27489;SDS011;14925;51.026;13.752;2022-09-09T16:48:35;7.30;;;2.78;;
27489;SDS011;14925;51.026;13.752;2022-09-09T16:51:01;5.38;;;1.85;;
27489;SDS011;14925;51.026;13.752;2022-09-09T16:53:30;6.45;;;2.45;;
27489;SDS011;14925;51.026;13.752;2022-09-09T16:55:55;7.30;;;2.30;;
27489;SDS011;14925;51.026;13.752;2022-09-09T16:58:20;7.35;;;2.40;;